sensor_id;sensor_type;location;lat;lon;timestamp;temperature;humidity
55711;DHT22;41612;51.994;5.880;2023-02-28T00:01:24;3.00;79.70
55711;DHT22;41612;51.994;5.880;2023-02-28T00:03:50;3.10;79.40
55711;DHT22;41612;51.994;5.880;2023-02-28T00:06:17;3.20;79.10
55711;DHT22;41612;51.994;5.880;2023-02-28T00:08:48;3.20;78.90
55711;DHT22;41612;51.994;5.880;2023-02-28T00:11:14;3.30;78.60
55711;DHT22;41612;51.994;5.880;2023-02-28T00:13:43;3.30;78.40
55711;DHT22;41612;51.994;5.880;2023-02-28T00:16:14;3.30;78.20
55711;DHT22;41612;51.994;5.880;2023-02-28T00:18:40;3.40;78.00
55711;DHT22;41612;51.994;5.880;2023-02-28T00:21:09;3.50;77.90
55711;DHT22;41612;51.994;5.880;2023-02-28T00:23:35;3.50;77.70
55711;DHT22;41612;51.994;5.880;2023-02-28T00:26:01;3.50;77.50
55711;DHT22;41612;51.994;5.880;2023-02-28T00:28:27;3.50;77.40
55711;DHT22;41612;51.994;5.880;2023-02-28T00:30:55;3.60;77.30
55711;DHT22;41612;51.994;5.880;2023-02-28T00:33:22;3.60;77.20
55711;DHT22;41612;51.994;5.880;2023-02-28T00:35:48;3.60;77.10
55711;DHT22;41612;51.994;5.880;2023-02-28T00:38:14;3.60;77.00
55711;DHT22;41612;51.994;5.880;2023-02-28T00:40:41;3.60;77.00
55711;DHT22;41612;51.994;5.880;2023-02-28T00:43:07;3.70;76.90
55711;DHT22;41612;51.994;5.880;2023-02-28T00:45:32;3.70;76.60
55711;DHT22;41612;51.994;5.880;2023-02-28T00:47:58;3.70;76.60
55711;DHT22;41612;51.994;5.880;2023-02-28T00:50:24;3.70;76.40
55711;DHT22;41612;51.994;5.880;2023-02-28T00:52:50;3.80;76.40
55711;DHT22;41612;51.994;5.880;2023-02-28T00:55:19;3.80;76.10
55711;DHT22;41612;51.994;5.880;2023-02-28T00:57:45;3.80;76.20
55711;DHT22;41612;51.994;5.880;2023-02-28T01:00:14;3.80;76.20
55711;DHT22;41612;51.994;5.880;2023-02-28T01:02:42;3.80;76.20
55711;DHT22;41612;51.994;5.880;2023-02-28T01:05:08;3.80;76.00
55711;DHT22;41612;51.994;5.880;2023-02-28T01:07:34;3.80;76.00
55711;DHT22;41612;51.994;5.880;2023-02-28T01:09:59;3.80;76.00
55711;DHT22;41612;51.994;5.880;2023-02-28T01:12:27;3.80;76.00
55711;DHT22;41612;51.994;5.880;2023-02-28T01:14:57;3.80;76.00
55711;DHT22;41612;51.994;5.880;2023-02-28T01:17:23;3.80;76.00
55711;DHT22;41612;51.994;5.880;2023-02-28T01:19:49;3.80;76.10
55711;DHT22;41612;51.994;5.880;2023-02-28T01:22:14;3.80;76.10
55711;DHT22;41612;51.994;5.880;2023-02-28T01:24:41;3.80;76.10
55711;DHT22;41612;51.994;5.880;2023-02-28T01:27:07;3.80;76.20
55711;DHT22;41612;51.994;5.880;2023-02-28T01:29:39;3.80;76.30
55711;DHT22;41612;51.994;5.880;2023-02-28T01:32:05;3.80;76.40
55711;DHT22;41612;51.994;5.880;2023-02-28T01:34:30;3.70;76.30
55711;DHT22;41612;51.994;5.880;2023-02-28T01:36:56;3.70;76.30
55711;DHT22;41612;51.994;5.880;2023-02-28T01:39:26;3.70;76.30
55711;DHT22;41612;51.994;5.880;2023-02-28T01:41:52;3.70;76.40
55711;DHT22;41612;51.994;5.880;2023-02-28T01:47:22;3.80;76.40
55711;DHT22;41612;51.994;5.880;2023-02-28T01:49:50;3.70;76.40
55711;DHT22;41612;51.994;5.880;2023-02-28T01:52:17;3.80;76.30
55711;DHT22;41612;51.994;5.880;2023-02-28T01:54:50;3.80;76.30
55711;DHT22;41612;51.994;5.880;2023-02-28T01:57:25;3.80;76.30
55711;DHT22;41612;51.994;5.880;2023-02-28T01:59:55;3.80;76.20
55711;DHT22;41612;51.994;5.880;2023-02-28T02:02:24;3.80;76.20
55711;DHT22;41612;51.994;5.880;2023-02-28T02:05:17;3.80;76.30
55711;DHT22;41612;51.994;5.880;2023-02-28T02:07:47;3.80;76.30
55711;DHT22;41612;51.994;5.880;2023-02-28T02:10:17;3.80;76.20
55711;DHT22;41612;51.994;5.880;2023-02-28T02:12:57;3.80;76.10
55711;DHT22;41612;51.994;5.880;2023-02-28T02:18:26;3.80;75.90
55711;DHT22;41612;51.994;5.880;2023-02-28T02:27:15;3.80;75.60
55711;DHT22;41612;51.994;5.880;2023-02-28T02:37:49;3.80;75.30
55711;DHT22;41612;51.994;5.880;2023-02-28T02:41:02;3.80;75.40
55711;DHT22;41612;51.994;5.880;2023-02-28T02:43:13;3.80;75.30
55711;DHT22;41612;51.994;5.880;2023-02-28T02:45:55;3.80;74.80
55711;DHT22;41612;51.994;5.880;2023-02-28T02:48:30;3.80;74.50
55711;DHT22;41612;51.994;5.880;2023-02-28T02:51:00;3.80;73.60
55711;DHT22;41612;51.994;5.880;2023-02-28T02:53:34;3.80;73.00
55711;DHT22;41612;51.994;5.880;2023-02-28T02:56:02;3.80;74.10
55711;DHT22;41612;51.994;5.880;2023-02-28T02:58:33;3.90;74.60
55711;DHT22;41612;51.994;5.880;2023-02-28T03:01:03;3.80;73.80
55711;DHT22;41612;51.994;5.880;2023-02-28T03:03:31;3.90;73.50
55711;DHT22;41612;51.994;5.880;2023-02-28T03:06:02;3.80;73.00
55711;DHT22;41612;51.994;5.880;2023-02-28T03:08:36;3.90;73.70
55711;DHT22;41612;51.994;5.880;2023-02-28T03:11:05;3.90;73.80
55711;DHT22;41612;51.994;5.880;2023-02-28T03:13:42;3.90;72.70
55711;DHT22;41612;51.994;5.880;2023-02-28T03:19:47;3.90;71.90
55711;DHT22;41612;51.994;5.880;2023-02-28T03:32:59;3.90;71.50
55711;DHT22;41612;51.994;5.880;2023-02-28T03:35:37;3.90;72.00
55711;DHT22;41612;51.994;5.880;2023-02-28T03:38:21;3.80;69.30
55711;DHT22;41612;51.994;5.880;2023-02-28T03:40:55;3.80;70.00
55711;DHT22;41612;51.994;5.880;2023-02-28T03:43:27;3.80;72.90
55711;DHT22;41612;51.994;5.880;2023-02-28T03:45:57;3.90;72.80
55711;DHT22;41612;51.994;5.880;2023-02-28T03:48:31;3.80;73.30
55711;DHT22;41612;51.994;5.880;2023-02-28T03:51:03;3.80;74.20
55711;DHT22;41612;51.994;5.880;2023-02-28T03:53:38;3.80;74.20
55711;DHT22;41612;51.994;5.880;2023-02-28T03:56:31;3.90;74.50
55711;DHT22;41612;51.994;5.880;2023-02-28T03:59:13;3.80;74.50
55711;DHT22;41612;51.994;5.880;2023-02-28T04:01:45;3.80;74.00
55711;DHT22;41612;51.994;5.880;2023-02-28T04:04:13;3.80;74.30
55711;DHT22;41612;51.994;5.880;2023-02-28T04:06:40;3.80;73.80
55711;DHT22;41612;51.994;5.880;2023-02-28T04:09:07;3.80;73.60
55711;DHT22;41612;51.994;5.880;2023-02-28T04:11:37;3.80;74.10
55711;DHT22;41612;51.994;5.880;2023-02-28T04:14:05;3.90;74.30
55711;DHT22;41612;51.994;5.880;2023-02-28T04:16:36;3.80;74.40
55711;DHT22;41612;51.994;5.880;2023-02-28T04:19:07;3.80;74.60
55711;DHT22;41612;51.994;5.880;2023-02-28T04:21:35;3.80;74.60
55711;DHT22;41612;51.994;5.880;2023-02-28T04:24:04;3.80;74.70
55711;DHT22;41612;51.994;5.880;2023-02-28T04:26:35;3.80;74.70
55711;DHT22;41612;51.994;5.880;2023-02-28T04:29:04;3.80;74.70
55711;DHT22;41612;51.994;5.880;2023-02-28T04:31:32;3.70;74.80
55711;DHT22;41612;51.994;5.880;2023-02-28T04:33:59;3.70;74.80
55711;DHT22;41612;51.994;5.880;2023-02-28T04:36:25;3.70;74.90
55711;DHT22;41612;51.994;5.880;2023-02-28T04:38:51;3.80;74.80
55711;DHT22;41612;51.994;5.880;2023-02-28T04:41:18;3.80;74.80
55711;DHT22;41612;51.994;5.880;2023-02-28T04:43:44;3.70;74.90
55711;DHT22;41612;51.994;5.880;2023-02-28T04:46:12;3.70;75.00
55711;DHT22;41612;51.994;5.880;2023-02-28T04:48:39;3.70;75.10
55711;DHT22;41612;51.994;5.880;2023-02-28T04:51:09;3.70;75.30
55711;DHT22;41612;51.994;5.880;2023-02-28T04:53:36;3.70;75.40
55711;DHT22;41612;51.994;5.880;2023-02-28T04:56:06;3.70;75.60
55711;DHT22;41612;51.994;5.880;2023-02-28T04:58:32;3.60;75.60
55711;DHT22;41612;51.994;5.880;2023-02-28T05:01:04;3.60;75.80
55711;DHT22;41612;51.994;5.880;2023-02-28T05:03:30;3.60;76.00
55711;DHT22;41612;51.994;5.880;2023-02-28T05:05:56;3.50;76.00
55711;DHT22;41612;51.994;5.880;2023-02-28T05:08:22;3.50;76.20
55711;DHT22;41612;51.994;5.880;2023-02-28T05:10:47;3.50;76.30
55711;DHT22;41612;51.994;5.880;2023-02-28T05:13:15;3.50;76.30
55711;DHT22;41612;51.994;5.880;2023-02-28T05:15:41;3.50;76.20
55711;DHT22;41612;51.994;5.880;2023-02-28T05:18:10;3.50;76.20
55711;DHT22;41612;51.994;5.880;2023-02-28T05:20:36;3.50;76.30
55711;DHT22;41612;51.994;5.880;2023-02-28T05:23:05;3.50;76.40
55711;DHT22;41612;51.994;5.880;2023-02-28T05:25:34;3.50;76.50
55711;DHT22;41612;51.994;5.880;2023-02-28T05:27:59;3.50;76.40
55711;DHT22;41612;51.994;5.880;2023-02-28T05:30:25;3.50;76.30
55711;DHT22;41612;51.994;5.880;2023-02-28T05:32:51;3.50;76.30
55711;DHT22;41612;51.994;5.880;2023-02-28T05:35:17;3.50;76.40
55711;DHT22;41612;51.994;5.880;2023-02-28T05:37:43;3.50;76.40
55711;DHT22;41612;51.994;5.880;2023-02-28T05:40:10;3.50;76.30
55711;DHT22;41612;51.994;5.880;2023-02-28T05:42:38;3.50;76.40
55711;DHT22;41612;51.994;5.880;2023-02-28T05:45:08;3.50;76.60
55711;DHT22;41612;51.994;5.880;2023-02-28T05:47:36;3.40;76.70
55711;DHT22;41612;51.994;5.880;2023-02-28T05:50:03;3.40;76.80
55711;DHT22;41612;51.994;5.880;2023-02-28T05:52:30;3.40;76.70
55711;DHT22;41612;51.994;5.880;2023-02-28T05:54:55;3.40;76.80
55711;DHT22;41612;51.994;5.880;2023-02-28T05:57:27;3.40;76.60
55711;DHT22;41612;51.994;5.880;2023-02-28T05:59:52;3.40;76.60
55711;DHT22;41612;51.994;5.880;2023-02-28T06:02:24;3.40;76.50
55711;DHT22;41612;51.994;5.880;2023-02-28T06:04:50;3.40;76.50
55711;DHT22;41612;51.994;5.880;2023-02-28T06:07:16;3.40;76.50
55711;DHT22;41612;51.994;5.880;2023-02-28T06:09:43;3.40;76.50
55711;DHT22;41612;51.994;5.880;2023-02-28T06:12:10;3.50;76.50
55711;DHT22;41612;51.994;5.880;2023-02-28T06:14:36;3.50;76.50
55711;DHT22;41612;51.994;5.880;2023-02-28T06:17:03;3.50;76.40
55711;DHT22;41612;51.994;5.880;2023-02-28T06:19:29;3.50;76.40
55711;DHT22;41612;51.994;5.880;2023-02-28T06:21:59;3.50;76.40
55711;DHT22;41612;51.994;5.880;2023-02-28T06:24:28;3.50;76.30
55711;DHT22;41612;51.994;5.880;2023-02-28T06:27:01;3.50;75.90
55711;DHT22;41612;51.994;5.880;2023-02-28T06:29:34;3.60;76.10
55711;DHT22;41612;51.994;5.880;2023-02-28T06:32:00;3.60;76.00
55711;DHT22;41612;51.994;5.880;2023-02-28T06:34:29;3.60;75.80
55711;DHT22;41612;51.994;5.880;2023-02-28T06:36:55;3.60;75.70
55711;DHT22;41612;51.994;5.880;2023-02-28T06:39:20;3.70;75.60
55711;DHT22;41612;51.994;5.880;2023-02-28T06:41:50;3.70;74.10
55711;DHT22;41612;51.994;5.880;2023-02-28T06:44:22;3.70;73.70
55711;DHT22;41612;51.994;5.880;2023-02-28T06:46:56;3.80;74.40
55711;DHT22;41612;51.994;5.880;2023-02-28T06:49:44;3.80;74.50
55711;DHT22;41612;51.994;5.880;2023-02-28T06:52:16;3.80;74.30
55711;DHT22;41612;51.994;5.880;2023-02-28T06:55:07;3.80;73.00
55711;DHT22;41612;51.994;5.880;2023-02-28T06:57:44;3.90;71.90
55711;DHT22;41612;51.994;5.880;2023-02-28T07:02:47;3.90;73.30
55711;DHT22;41612;51.994;5.880;2023-02-28T07:05:16;3.90;72.70
55711;DHT22;41612;51.994;5.880;2023-02-28T07:07:44;4.00;73.40
55711;DHT22;41612;51.994;5.880;2023-02-28T07:10:13;4.00;72.90
55711;DHT22;41612;51.994;5.880;2023-02-28T07:12:47;3.90;70.90
55711;DHT22;41612;51.994;5.880;2023-02-28T07:15:24;3.90;67.90
55711;DHT22;41612;51.994;5.880;2023-02-28T07:17:53;4.00;68.60
55711;DHT22;41612;51.994;5.880;2023-02-28T07:20:25;4.00;67.80
55711;DHT22;41612;51.994;5.880;2023-02-28T07:22:57;4.00;65.90
55711;DHT22;41612;51.994;5.880;2023-02-28T07:28:05;4.10;69.50
55711;DHT22;41612;51.994;5.880;2023-02-28T07:30:33;4.10;66.80
55711;DHT22;41612;51.994;5.880;2023-02-28T07:41:12;4.20;69.10
55711;DHT22;41612;51.994;5.880;2023-02-28T07:43:38;4.20;70.40
55711;DHT22;41612;51.994;5.880;2023-02-28T07:46:12;4.20;68.90
55711;DHT22;41612;51.994;5.880;2023-02-28T07:48:49;4.20;67.10
55711;DHT22;41612;51.994;5.880;2023-02-28T07:51:15;4.20;64.90
55711;DHT22;41612;51.994;5.880;2023-02-28T07:53:46;4.30;66.30
55711;DHT22;41612;51.994;5.880;2023-02-28T07:56:14;4.30;64.60
55711;DHT22;41612;51.994;5.880;2023-02-28T07:58:40;4.30;66.20
55711;DHT22;41612;51.994;5.880;2023-02-28T08:04:14;4.40;65.60
55711;DHT22;41612;51.994;5.880;2023-02-28T08:06:43;4.40;63.50
55711;DHT22;41612;51.994;5.880;2023-02-28T08:09:15;4.40;61.60
55711;DHT22;41612;51.994;5.880;2023-02-28T08:11:48;4.40;62.00
55711;DHT22;41612;51.994;5.880;2023-02-28T08:14:16;4.30;55.90
55711;DHT22;41612;51.994;5.880;2023-02-28T08:16:49;4.30;58.60
55711;DHT22;41612;51.994;5.880;2023-02-28T08:19:15;4.40;55.20
55711;DHT22;41612;51.994;5.880;2023-02-28T08:21:43;4.50;55.80
55711;DHT22;41612;51.994;5.880;2023-02-28T08:24:09;4.60;54.30
55711;DHT22;41612;51.994;5.880;2023-02-28T08:26:38;4.60;53.60
55711;DHT22;41612;51.994;5.880;2023-02-28T08:29:09;4.70;56.50
55711;DHT22;41612;51.994;5.880;2023-02-28T08:31:38;4.70;54.80
55711;DHT22;41612;51.994;5.880;2023-02-28T08:34:07;4.80;55.50
55711;DHT22;41612;51.994;5.880;2023-02-28T08:36:40;4.70;55.60
55711;DHT22;41612;51.994;5.880;2023-02-28T08:39:09;4.70;58.90
55711;DHT22;41612;51.994;5.880;2023-02-28T08:41:35;4.70;56.50
55711;DHT22;41612;51.994;5.880;2023-02-28T08:44:00;4.80;62.80
55711;DHT22;41612;51.994;5.880;2023-02-28T08:46:26;4.80;56.40
55711;DHT22;41612;51.994;5.880;2023-02-28T08:48:54;4.80;48.60
55711;DHT22;41612;51.994;5.880;2023-02-28T08:51:28;4.70;50.80
55711;DHT22;41612;51.994;5.880;2023-02-28T08:53:59;4.70;50.80
55711;DHT22;41612;51.994;5.880;2023-02-28T10:10:33;7.70;41.70
55711;DHT22;41612;51.994;5.880;2023-02-28T10:15:42;7.80;38.50
55711;DHT22;41612;51.994;5.880;2023-02-28T10:18:23;7.90;39.30
55711;DHT22;41612;51.994;5.880;2023-02-28T10:20:51;8.20;41.00
55711;DHT22;41612;51.994;5.880;2023-02-28T12:19:33;17.00;23.20
55711;DHT22;41612;51.994;5.880;2023-02-28T13:06:23;22.70;18.80
55711;DHT22;41612;51.994;5.880;2023-02-28T13:09:14;22.20;17.90
55711;DHT22;41612;51.994;5.880;2023-02-28T13:11:58;22.10;18.20
55711;DHT22;41612;51.994;5.880;2023-02-28T13:18:00;22.70;23.90
55711;DHT22;41612;51.994;5.880;2023-02-28T15:53:47;24.00;25.10
55711;DHT22;41612;51.994;5.880;2023-02-28T15:59:14;24.30;25.00
55711;DHT22;41612;51.994;5.880;2023-02-28T16:07:47;23.90;25.70
55711;DHT22;41612;51.994;5.880;2023-02-28T16:10:45;23.80;25.00
55711;DHT22;41612;51.994;5.880;2023-02-28T16:13:14;23.50;20.90
55711;DHT22;41612;51.994;5.880;2023-02-28T16:18:22;23.00;26.90
55711;DHT22;41612;51.994;5.880;2023-02-28T16:20:56;22.70;27.60
55711;DHT22;41612;51.994;5.880;2023-02-28T16:34:17;17.90;34.90
55711;DHT22;41612;51.994;5.880;2023-02-28T17:23:44;9.50;59.20
55711;DHT22;41612;51.994;5.880;2023-02-28T17:29:05;9.30;60.40
55711;DHT22;41612;51.994;5.880;2023-02-28T17:32:27;9.20;61.00
55711;DHT22;41612;51.994;5.880;2023-02-28T17:41:19;8.80;59.10
55711;DHT22;41612;51.994;5.880;2023-02-28T17:43:45;8.70;62.00
55711;DHT22;41612;51.994;5.880;2023-02-28T17:46:36;8.60;61.30
55711;DHT22;41612;51.994;5.880;2023-02-28T17:49:05;8.50;62.20
55711;DHT22;41612;51.994;5.880;2023-02-28T17:51:31;8.50;62.30
55711;DHT22;41612;51.994;5.880;2023-02-28T17:53:57;8.40;60.10
55711;DHT22;41612;51.994;5.880;2023-02-28T17:56:24;8.30;62.70
55711;DHT22;41612;51.994;5.880;2023-02-28T17:58:52;8.30;62.70
55711;DHT22;41612;51.994;5.880;2023-02-28T18:01:20;8.20;61.40
55711;DHT22;41612;51.994;5.880;2023-02-28T18:03:51;8.10;61.10
55711;DHT22;41612;51.994;5.880;2023-02-28T18:06:40;8.00;62.20
55711;DHT22;41612;51.994;5.880;2023-02-28T18:09:22;8.00;64.00
55711;DHT22;41612;51.994;5.880;2023-02-28T18:11:49;8.00;63.90
55711;DHT22;41612;51.994;5.880;2023-02-28T18:14:16;7.90;64.20
55711;DHT22;41612;51.994;5.880;2023-02-28T18:16:42;7.90;64.40
55711;DHT22;41612;51.994;5.880;2023-02-28T18:19:08;7.90;64.90
55711;DHT22;41612;51.994;5.880;2023-02-28T18:21:55;7.80;64.90
55711;DHT22;41612;51.994;5.880;2023-02-28T18:24:22;7.70;62.90
55711;DHT22;41612;51.994;5.880;2023-02-28T18:26:49;7.70;63.60
55711;DHT22;41612;51.994;5.880;2023-02-28T18:29:21;7.60;65.10
